createdAt,value
2019-02-26T00:02:19.804Z,21.80
2019-02-26T00:04:51.680Z,20.37
2019-02-26T00:07:24.928Z,21.17
2019-02-26T00:09:55.820Z,20.85
2019-02-26T00:12:26.462Z,21.95
2019-02-26T00:15:00.231Z,20.80
2019-02-26T00:17:29.726Z,20.60
2019-02-26T00:19:59.904Z,21.48
2019-02-26T00:22:32.229Z,21.70
2019-02-26T00:25:03.837Z,20.90
2019-02-26T00:27:35.128Z,20.90
2019-02-26T00:30:14.359Z,20.10
2019-02-26T00:32:46.270Z,20.02
2019-02-26T00:35:19.050Z,19.92
2019-02-26T00:37:50.601Z,20.30
2019-02-26T00:40:20.420Z,19.85
2019-02-26T00:42:54.383Z,19.32
2019-02-26T00:45:24.809Z,20.23
2019-02-26T00:47:54.300Z,19.62
2019-02-26T00:50:24.457Z,18.60
2019-02-26T00:52:57.058Z,18.67
2019-02-26T00:55:29.331Z,16.45
2019-02-26T00:58:00.956Z,15.78
2019-02-26T01:00:32.666Z,15.53
2019-02-26T01:03:03.990Z,15.00
2019-02-26T01:05:36.132Z,14.43
2019-02-26T01:08:10.631Z,12.65
2019-02-26T01:10:39.840Z,13.55
2019-02-26T01:13:10.445Z,13.05
2019-02-26T01:15:40.633Z,13.60
2019-02-26T01:18:10.826Z,11.97
2019-02-26T01:20:41.052Z,11.85
2019-02-26T01:23:11.202Z,12.50
2019-02-26T01:25:41.233Z,11.60
2019-02-26T01:28:14.125Z,12.13
2019-02-26T01:30:43.100Z,10.78
2019-02-26T01:33:13.573Z,11.45
2019-02-26T01:35:44.106Z,14.90
2019-02-26T01:38:14.827Z,12.58
2019-02-26T01:40:48.425Z,14.33
2019-02-26T01:43:17.760Z,15.95
2019-02-26T01:45:48.638Z,15.58
2019-02-26T01:48:19.479Z,15.93
2019-02-26T01:50:49.623Z,14.30
2019-02-26T01:53:21.538Z,14.13
2019-02-26T01:55:52.432Z,13.88
2019-02-26T01:58:22.569Z,14.70
2019-02-26T02:00:55.259Z,13.78
2019-02-26T02:03:25.503Z,13.60
2019-02-26T02:05:56.864Z,13.30
2019-02-26T02:08:27.009Z,13.95
2019-02-26T02:10:59.341Z,14.60
2019-02-26T02:13:30.550Z,13.93
2019-02-26T02:16:04.385Z,13.58
2019-02-26T02:18:34.110Z,13.80
2019-02-26T02:21:04.688Z,13.90
2019-02-26T02:23:34.751Z,14.23
2019-02-26T02:26:06.693Z,13.65
2019-02-26T02:28:36.626Z,14.70
2019-02-26T02:31:06.860Z,14.90
2019-02-26T02:33:37.605Z,15.05
2019-02-26T02:36:11.518Z,15.38
2019-02-26T02:38:39.523Z,15.68
2019-02-26T02:41:09.683Z,15.45
2019-02-26T02:43:40.174Z,18.23
2019-02-26T02:46:10.323Z,17.80
2019-02-26T02:48:40.710Z,18.82
2019-02-26T02:51:13.740Z,19.45
2019-02-26T02:53:45.037Z,18.92
2019-02-26T02:56:15.363Z,18.05
2019-02-26T02:58:46.978Z,18.45
2019-02-26T03:01:20.394Z,16.52
2019-02-26T03:03:50.600Z,19.45
2019-02-26T03:06:24.107Z,19.12
2019-02-26T03:08:54.275Z,19.10
2019-02-26T03:11:24.353Z,17.50
2019-02-26T03:13:54.449Z,17.87
2019-02-26T03:16:27.147Z,17.12
2019-02-26T03:18:57.417Z,18.87
2019-02-26T03:21:28.649Z,18.17
2019-02-26T03:24:00.918Z,18.30
2019-02-26T03:26:31.039Z,18.05
2019-02-26T03:29:01.125Z,17.25
2019-02-26T03:31:34.820Z,18.50
2019-02-26T03:34:08.860Z,17.40
2019-02-26T03:36:37.370Z,19.12
2019-02-26T03:39:07.197Z,18.10
2019-02-26T03:41:37.802Z,18.95
2019-02-26T03:44:08.779Z,18.95
2019-02-26T03:46:38.954Z,17.87
2019-02-26T03:49:09.043Z,17.45
2019-02-26T03:51:39.818Z,17.75
2019-02-26T03:54:09.992Z,17.75
2019-02-26T03:56:40.079Z,17.00
2019-02-26T03:59:11.805Z,18.75
2019-02-26T04:01:42.667Z,16.17
2019-02-26T04:04:13.177Z,16.90
2019-02-26T04:06:45.905Z,16.07
2019-02-26T04:09:17.196Z,16.70
2019-02-26T04:11:48.149Z,15.93
2019-02-26T04:14:20.192Z,15.55
2019-02-26T04:16:50.573Z,15.08
2019-02-26T04:19:26.121Z,17.60
2019-02-26T04:22:29.989Z,17.90
2019-02-26T04:25:22.218Z,15.78
2019-02-26T04:28:05.173Z,16.80
2019-02-26T04:30:56.838Z,17.95
2019-02-26T04:33:55.844Z,15.32
2019-02-26T04:36:28.801Z,16.45
2019-02-26T04:39:24.845Z,15.83
2019-02-26T04:42:10.766Z,15.88
2019-02-26T04:47:21.287Z,13.98
2019-02-26T04:49:50.251Z,16.10
2019-02-26T04:52:20.380Z,15.78
2019-02-26T04:54:50.450Z,16.17
2019-02-26T04:57:20.591Z,15.58
2019-02-26T04:59:51.147Z,15.08
2019-02-26T05:02:21.357Z,14.60
2019-02-26T05:04:51.883Z,16.73
2019-02-26T05:07:22.254Z,15.83
2019-02-26T05:09:53.808Z,16.32
2019-02-26T05:12:25.305Z,16.50
2019-02-26T05:14:56.372Z,17.23
2019-02-26T05:17:28.038Z,17.17
2019-02-26T05:19:58.315Z,16.85
2019-02-26T05:22:30.989Z,17.50
2019-02-26T05:25:01.152Z,15.83
2019-02-26T05:27:31.386Z,15.40
2019-02-26T05:30:01.540Z,16.25
2019-02-26T05:32:33.431Z,16.32
2019-02-26T05:35:03.567Z,14.45
2019-02-26T05:37:35.396Z,16.50
2019-02-26T05:40:09.071Z,16.17
2019-02-26T05:42:38.286Z,15.95
2019-02-26T05:45:09.280Z,15.50
2019-02-26T05:47:40.113Z,16.27
2019-02-26T05:50:14.283Z,17.12
2019-02-26T05:52:42.390Z,16.75
2019-02-26T05:55:16.428Z,17.00
2019-02-26T05:57:44.634Z,16.67
2019-02-26T06:00:18.306Z,17.92
2019-02-26T06:02:48.519Z,16.50
2019-02-26T06:05:20.456Z,18.23
2019-02-26T06:07:52.058Z,17.87
2019-02-26T06:10:24.510Z,17.05
2019-02-26T06:12:54.153Z,18.05
2019-02-26T06:15:25.909Z,16.65
2019-02-26T06:17:56.043Z,17.50
2019-02-26T06:20:28.790Z,16.02
2019-02-26T06:22:57.867Z,17.17
2019-02-26T06:25:28.088Z,15.85
2019-02-26T06:28:02.280Z,16.93
2019-02-26T06:30:30.495Z,16.93
2019-02-26T06:33:04.119Z,16.23
2019-02-26T06:35:33.686Z,16.82
2019-02-26T06:38:04.619Z,16.25
2019-02-26T06:40:36.965Z,16.87
2019-02-26T06:43:07.374Z,16.87
2019-02-26T06:45:37.943Z,16.23
2019-02-26T06:48:12.560Z,16.80
2019-02-26T06:50:43.388Z,16.62
2019-02-26T06:53:13.724Z,15.78
2019-02-26T06:55:44.935Z,16.55
2019-02-26T06:58:23.378Z,17.50
2019-02-26T07:00:55.454Z,15.53
2019-02-26T07:03:25.423Z,14.35
2019-02-26T07:05:55.648Z,15.58
2019-02-26T07:08:28.386Z,16.77
2019-02-26T07:10:57.874Z,16.35
2019-02-26T07:13:28.293Z,15.58
2019-02-26T07:15:58.430Z,15.25
2019-02-26T07:18:28.437Z,16.27
2019-02-26T07:21:00.300Z,17.15
2019-02-26T07:23:32.783Z,14.90
2019-02-26T07:26:02.782Z,15.72
2019-02-26T07:28:32.923Z,16.77
2019-02-26T07:31:04.969Z,16.40
2019-02-26T07:33:36.963Z,17.07
2019-02-26T07:36:06.765Z,17.62
2019-02-26T07:38:41.214Z,17.65
2019-02-26T07:41:09.136Z,17.23
2019-02-26T07:43:41.807Z,17.12
2019-02-26T07:46:14.465Z,19.32
2019-02-26T07:48:46.149Z,19.73
2019-02-26T07:51:16.310Z,18.48
2019-02-26T07:53:50.627Z,17.73
2019-02-26T07:56:18.184Z,19.25
2019-02-26T07:58:48.264Z,18.20
2019-02-26T08:01:18.432Z,17.90
2019-02-26T08:03:49.222Z,19.77
2019-02-26T08:06:20.270Z,19.77
2019-02-26T08:08:50.725Z,19.07
2019-02-26T08:11:21.330Z,20.17
2019-02-26T08:13:52.508Z,20.05
2019-02-26T08:16:25.380Z,19.65
2019-02-26T08:18:57.157Z,19.98
2019-02-26T08:21:29.593Z,20.32
2019-02-26T08:23:58.961Z,19.85
2019-02-26T08:26:29.414Z,21.37
2019-02-26T08:29:00.224Z,23.40
2019-02-26T08:31:31.263Z,20.55
2019-02-26T08:34:01.502Z,21.27
2019-02-26T08:36:31.705Z,20.72
2019-02-26T08:39:01.881Z,24.52
2019-02-26T08:41:33.546Z,21.10
2019-02-26T08:44:03.703Z,20.65
2019-02-26T08:46:33.862Z,21.00
2019-02-26T08:49:08.444Z,21.10
2019-02-26T08:51:35.852Z,20.40
2019-02-26T08:54:05.941Z,21.20
2019-02-26T08:56:36.881Z,21.65
2019-02-26T08:59:07.757Z,22.75
2019-02-26T09:01:37.945Z,23.10
2019-02-26T09:04:08.250Z,22.32
2019-02-26T09:06:38.397Z,20.82
2019-02-26T09:09:08.747Z,20.55
2019-02-26T09:11:38.946Z,21.55
2019-02-26T09:14:12.108Z,21.73
2019-02-26T09:16:41.662Z,23.38
2019-02-26T09:19:12.165Z,21.52
2019-02-26T09:21:44.621Z,19.82
2019-02-26T09:24:15.103Z,20.17
2019-02-26T09:26:45.193Z,19.40
2019-02-26T09:29:17.294Z,18.67
2019-02-26T09:31:47.383Z,19.40
2019-02-26T09:34:17.678Z,20.72
2019-02-26T09:36:50.655Z,20.45
2019-02-26T09:39:20.300Z,15.98
2019-02-26T09:41:50.815Z,17.05
2019-02-26T09:44:21.348Z,15.48
2019-02-26T09:46:51.615Z,17.15
2019-02-26T09:49:21.825Z,17.70
2019-02-26T09:51:51.960Z,17.65
2019-02-26T09:54:22.565Z,17.75
2019-02-26T09:56:52.805Z,17.42
2019-02-26T09:59:24.022Z,18.32
2019-02-26T10:01:54.615Z,19.15
2019-02-26T10:04:26.604Z,19.42
2019-02-26T10:06:57.483Z,19.35
2019-02-26T10:09:27.970Z,22.42
2019-02-26T10:11:58.138Z,18.92
2019-02-26T10:14:29.189Z,17.15
2019-02-26T10:17:00.574Z,18.15
2019-02-26T10:19:33.746Z,17.37
2019-02-26T10:22:06.395Z,17.52
2019-02-26T10:24:37.211Z,18.20
2019-02-26T10:27:10.896Z,20.88
2019-02-26T10:29:41.944Z,27.52
2019-02-26T10:32:11.964Z,29.52
2019-02-26T10:34:42.162Z,30.40
2019-02-26T10:37:12.295Z,29.63
2019-02-26T10:39:44.360Z,27.35
2019-02-26T10:42:14.253Z,29.27
2019-02-26T10:44:44.793Z,31.50
2019-02-26T10:47:14.829Z,30.52
2019-02-26T10:49:46.752Z,30.02
2019-02-26T10:52:19.423Z,30.77
2019-02-26T10:54:48.870Z,28.07
2019-02-26T10:57:19.067Z,30.15
2019-02-26T10:59:49.205Z,29.15
2019-02-26T11:02:22.474Z,28.80
2019-02-26T11:04:53.516Z,27.13
2019-02-26T11:07:23.510Z,27.40
2019-02-26T11:09:55.541Z,26.57
2019-02-26T11:12:28.492Z,27.17
2019-02-26T11:15:00.842Z,25.30
2019-02-26T11:17:31.643Z,24.82
2019-02-26T11:20:04.657Z,26.15
2019-02-26T11:22:33.687Z,25.80
2019-02-26T11:25:04.675Z,26.50
2019-02-26T11:27:35.772Z,25.55
2019-02-26T11:30:09.621Z,22.93
2019-02-26T11:32:42.197Z,22.15
2019-02-26T11:35:15.243Z,21.75
2019-02-26T11:37:47.305Z,21.77
2019-02-26T11:40:22.874Z,23.02
2019-02-26T11:42:52.562Z,23.15
2019-02-26T11:45:23.649Z,22.40
2019-02-26T11:47:55.760Z,24.02
2019-02-26T11:50:28.090Z,24.65
2019-02-26T11:52:58.079Z,25.60
2019-02-26T11:55:31.985Z,22.80
2019-02-26T11:58:01.028Z,23.55
2019-02-26T12:00:37.317Z,23.60
2019-02-26T12:03:07.820Z,22.95
2019-02-26T12:05:39.539Z,23.92
2019-02-26T12:08:12.082Z,24.43
2019-02-26T12:10:43.052Z,22.02
2019-02-26T12:13:14.686Z,22.05
2019-02-26T12:15:45.055Z,22.52
2019-02-26T12:18:17.411Z,24.27
2019-02-26T12:20:48.777Z,23.47
2019-02-26T12:23:22.657Z,21.50
2019-02-26T12:25:53.650Z,23.80
2019-02-26T12:28:25.485Z,20.32
2019-02-26T12:30:58.409Z,18.77
2019-02-26T12:33:32.196Z,18.07
2019-02-26T12:36:02.045Z,18.25
2019-02-26T12:38:31.640Z,16.90
2019-02-26T12:41:02.084Z,17.52
2019-02-26T12:43:33.302Z,15.98
2019-02-26T12:46:04.764Z,14.85
2019-02-26T12:48:37.824Z,15.63
2019-02-26T12:51:08.030Z,15.10
2019-02-26T12:53:49.588Z,17.20
2019-02-26T12:56:20.568Z,16.60
2019-02-26T12:58:52.051Z,16.45
2019-02-26T13:01:21.902Z,14.45
2019-02-26T13:03:54.955Z,15.00
2019-02-26T13:06:23.776Z,15.85
2019-02-26T13:08:53.819Z,14.43
2019-02-26T13:11:25.129Z,14.83
2019-02-26T13:13:55.858Z,13.55
2019-02-26T13:16:26.384Z,12.63
2019-02-26T13:19:00.657Z,12.70
2019-02-26T13:21:28.621Z,11.88
2019-02-26T13:24:05.214Z,11.18
2019-02-26T13:26:34.804Z,10.95
2019-02-26T13:29:02.739Z,10.72
2019-02-26T13:31:35.657Z,10.63
2019-02-26T13:34:04.703Z,9.50
2019-02-26T13:36:36.374Z,9.83
2019-02-26T13:39:07.534Z,8.90
2019-02-26T13:41:39.155Z,9.00
2019-02-26T13:44:10.305Z,9.13
2019-02-26T13:46:40.445Z,10.53
2019-02-26T13:49:10.604Z,10.53
2019-02-26T13:51:40.814Z,10.43
2019-02-26T13:54:11.023Z,9.18
2019-02-26T13:56:41.151Z,10.30
2019-02-26T13:59:11.288Z,11.73
2019-02-26T14:01:41.480Z,11.63
2019-02-26T14:04:11.950Z,16.02
2019-02-26T14:06:42.074Z,17.17
2019-02-26T14:09:12.301Z,18.62
2019-02-26T14:11:42.377Z,16.80
2019-02-26T14:14:12.473Z,19.52
2019-02-26T14:16:43.079Z,17.73
2019-02-26T14:19:13.233Z,22.75
2019-02-26T14:21:43.515Z,22.60
2019-02-26T14:24:13.844Z,23.38
2019-02-26T14:26:44.024Z,23.92
2019-02-26T14:29:31.822Z,24.98
2019-02-26T14:32:19.795Z,25.68
2019-02-26T14:34:49.874Z,25.80
2019-02-26T14:37:20.015Z,25.77
2019-02-26T14:39:50.110Z,23.57
2019-02-26T14:42:21.614Z,24.27
2019-02-26T14:44:52.115Z,23.90
2019-02-26T14:47:22.350Z,23.42
2019-02-26T14:49:52.503Z,23.42
2019-02-26T14:52:23.706Z,23.05
2019-02-26T14:54:53.862Z,23.55
2019-02-26T14:57:25.090Z,23.45
2019-02-26T14:59:55.381Z,22.87
2019-02-26T15:02:25.454Z,22.50
2019-02-26T15:04:57.098Z,24.20
2019-02-26T15:07:27.381Z,24.87
2019-02-26T15:09:57.480Z,23.55
2019-02-26T15:12:27.986Z,24.85
2019-02-26T15:14:58.254Z,25.02
2019-02-26T15:17:28.807Z,23.42
2019-02-26T15:19:58.986Z,24.30
2019-02-26T15:22:29.151Z,23.87
2019-02-26T15:24:59.244Z,25.85
2019-02-26T15:27:35.984Z,25.30
2019-02-26T15:30:01.185Z,24.25
2019-02-26T15:32:31.716Z,22.50
2019-02-26T15:35:01.795Z,23.15
2019-02-26T15:37:31.958Z,22.87
2019-02-26T15:40:02.025Z,20.70
2019-02-26T15:42:34.156Z,21.60
2019-02-26T15:45:06.250Z,21.75
2019-02-26T15:47:36.402Z,20.40
2019-02-26T15:50:10.287Z,21.93
2019-02-26T15:55:15.137Z,21.33
2019-02-26T15:57:45.410Z,22.58
2019-02-26T16:00:19.175Z,22.22
2019-02-26T16:05:20.434Z,22.17
2019-02-26T16:07:50.643Z,22.32
2019-02-26T16:10:22.251Z,24.02
2019-02-26T16:12:52.968Z,23.30
2019-02-26T16:15:23.108Z,23.92
2019-02-26T16:17:53.275Z,24.43
2019-02-26T16:20:23.765Z,23.75
2019-02-26T16:22:53.915Z,26.50
2019-02-26T16:25:24.052Z,24.15
2019-02-26T16:27:54.443Z,25.95
2019-02-26T16:30:26.204Z,26.02
2019-02-26T16:32:56.816Z,25.55
2019-02-26T16:35:27.005Z,27.07
2019-02-26T16:37:57.564Z,28.07
2019-02-26T16:40:31.464Z,26.20
2019-02-26T16:42:59.494Z,30.15
2019-02-26T16:45:34.419Z,31.27
2019-02-26T16:48:01.321Z,30.52
2019-02-26T16:50:32.035Z,30.75
2019-02-26T16:53:02.480Z,30.65
2019-02-26T16:55:32.946Z,31.85
2019-02-26T16:58:03.435Z,30.68
2019-02-26T17:00:33.650Z,30.52
2019-02-26T17:03:03.817Z,31.60
2019-02-26T17:05:33.964Z,29.52
2019-02-26T17:08:04.207Z,26.45
2019-02-26T17:10:34.438Z,25.97
2019-02-26T17:13:04.584Z,26.05
2019-02-26T17:15:36.292Z,26.37
2019-02-26T17:18:09.396Z,24.30
2019-02-26T17:20:38.352Z,27.15
2019-02-26T17:23:13.633Z,25.35
2019-02-26T17:25:41.874Z,26.70
2019-02-26T17:28:12.360Z,27.00
2019-02-26T17:30:43.593Z,26.50
2019-02-26T17:33:14.609Z,24.25
2019-02-26T17:35:45.260Z,24.80
2019-02-26T17:38:17.461Z,23.57
2019-02-26T17:40:47.259Z,25.95
2019-02-26T17:43:17.466Z,24.30
2019-02-26T17:45:47.623Z,25.12
2019-02-26T17:48:17.770Z,24.27
2019-02-26T17:50:48.003Z,24.70
2019-02-26T17:53:18.070Z,23.10
2019-02-26T17:55:48.230Z,23.20
2019-02-26T17:58:18.319Z,24.37
2019-02-26T18:00:53.221Z,22.27
2019-02-26T18:03:25.629Z,22.40
2019-02-26T18:05:55.511Z,21.95
2019-02-26T18:08:25.644Z,23.12
2019-02-26T18:10:55.853Z,26.35
2019-02-26T18:13:26.058Z,23.87
2019-02-26T18:15:56.876Z,24.47
2019-02-26T18:18:27.774Z,24.05
2019-02-26T18:20:58.380Z,23.98
2019-02-26T18:23:28.522Z,23.55
2019-02-26T18:26:00.035Z,23.32
2019-02-26T18:28:30.102Z,26.37
2019-02-26T18:31:00.196Z,24.37
2019-02-26T18:33:30.473Z,24.18
2019-02-26T18:36:01.042Z,24.47
2019-02-26T18:38:31.125Z,23.92
2019-02-26T18:41:01.349Z,24.18
2019-02-26T18:43:32.567Z,28.92
2019-02-26T18:46:03.078Z,27.37
2019-02-26T18:48:33.297Z,27.70
2019-02-26T18:51:03.445Z,28.80
2019-02-26T18:53:33.669Z,29.25
2019-02-26T18:56:04.317Z,27.32
2019-02-26T18:58:35.002Z,22.95
2019-02-26T19:01:05.220Z,26.07
2019-02-26T19:03:35.734Z,21.65
2019-02-26T19:06:05.931Z,21.25
2019-02-26T19:08:38.909Z,23.30
2019-02-26T19:11:08.027Z,23.25
2019-02-26T19:13:38.183Z,22.05
2019-02-26T19:16:08.392Z,20.12
2019-02-26T19:18:38.613Z,22.48
2019-02-26T19:21:08.833Z,18.20
2019-02-26T19:23:39.062Z,18.35
2019-02-26T19:26:13.497Z,19.95
2019-02-26T19:28:42.095Z,20.65
2019-02-26T19:31:12.371Z,18.75
2019-02-26T19:33:42.535Z,20.08
2019-02-26T19:36:13.014Z,18.37
2019-02-26T19:38:43.739Z,18.55
2019-02-26T19:41:16.144Z,18.80
2019-02-26T19:43:47.117Z,18.20
2019-02-26T19:46:17.890Z,18.57
2019-02-26T19:48:49.563Z,20.23
2019-02-26T19:51:22.073Z,20.10
2019-02-26T19:53:51.478Z,20.17
2019-02-26T19:56:23.713Z,19.40
2019-02-26T19:58:53.391Z,18.85
2019-02-26T20:01:25.811Z,19.62
2019-02-26T20:03:55.755Z,18.70
2019-02-26T20:06:26.886Z,20.15
2019-02-26T20:08:58.808Z,20.80
2019-02-26T20:11:28.878Z,19.95
2019-02-26T20:14:04.723Z,22.50
2019-02-26T20:16:30.885Z,20.82
2019-02-26T20:19:01.316Z,18.45
2019-02-26T20:21:31.473Z,21.05
2019-02-26T20:24:01.980Z,21.52
2019-02-26T20:26:32.067Z,22.58
2019-02-26T20:29:02.235Z,23.02
2019-02-26T20:31:32.741Z,22.50
2019-02-26T20:34:04.140Z,23.65
2019-02-26T20:36:35.235Z,23.05
2019-02-26T20:39:07.907Z,24.80
2019-02-26T20:44:10.058Z,22.70
2019-02-26T20:46:40.174Z,23.75
2019-02-26T20:49:12.274Z,23.77
2019-02-26T20:51:42.328Z,23.30
2019-02-26T20:54:12.653Z,22.22
2019-02-26T20:56:44.783Z,21.12
2019-02-26T20:59:17.546Z,21.87
2019-02-26T21:01:47.114Z,21.52
2019-02-26T21:04:17.320Z,23.52
2019-02-26T21:06:50.418Z,21.40
2019-02-26T21:09:19.798Z,22.13
2019-02-26T21:11:50.006Z,20.68
2019-02-26T21:14:20.215Z,19.87
2019-02-26T21:16:53.503Z,21.45
2019-02-26T21:19:22.306Z,22.35
2019-02-26T21:21:52.849Z,23.10
2019-02-26T21:24:23.509Z,21.57
2019-02-26T21:26:54.116Z,21.30
2019-02-26T21:29:24.378Z,22.80
2019-02-26T21:31:56.202Z,21.37
2019-02-26T21:34:26.728Z,20.20
2019-02-26T21:36:57.874Z,20.10
2019-02-26T21:39:28.826Z,22.02
2019-02-26T21:41:59.341Z,20.62
2019-02-26T21:44:29.604Z,19.98
2019-02-26T21:46:59.762Z,19.98
2019-02-26T21:49:30.404Z,18.87
2019-02-26T21:52:00.546Z,20.32
2019-02-26T21:54:30.787Z,22.75
2019-02-26T21:57:01.062Z,21.62
2019-02-26T21:59:32.769Z,21.55
2019-02-26T22:02:03.503Z,23.32
2019-02-26T22:04:33.657Z,22.62
2019-02-26T22:07:03.928Z,22.55
2019-02-26T22:09:34.444Z,24.37
2019-02-26T22:12:04.608Z,25.48
2019-02-26T22:14:36.777Z,25.08
2019-02-26T22:17:06.471Z,26.95
2019-02-26T22:19:37.693Z,23.27
2019-02-26T22:22:08.334Z,22.65
2019-02-26T22:24:40.528Z,24.20
2019-02-26T22:27:10.607Z,23.83
2019-02-26T22:29:40.803Z,25.45
2019-02-26T22:32:10.802Z,24.40
2019-02-26T22:34:41.372Z,22.98
2019-02-26T22:37:11.547Z,24.52
2019-02-26T22:39:42.125Z,23.85
2019-02-26T22:42:12.219Z,25.08
2019-02-26T22:44:42.235Z,25.60
2019-02-26T22:47:13.631Z,26.12
2019-02-26T22:49:43.813Z,24.10
2019-02-26T22:52:13.949Z,24.35
2019-02-26T22:54:45.310Z,25.70
2019-02-26T22:57:15.768Z,24.75
2019-02-26T22:59:45.852Z,23.18
2019-02-26T23:02:16.131Z,24.50
2019-02-26T23:04:46.488Z,23.62
2019-02-26T23:07:16.867Z,22.70
2019-02-26T23:09:52.191Z,19.92
2019-02-26T23:12:21.602Z,22.13
2019-02-26T23:14:52.194Z,22.67
2019-02-26T23:17:24.700Z,21.95
2019-02-26T23:19:54.688Z,23.32
2019-02-26T23:22:24.896Z,22.07
2019-02-26T23:24:54.977Z,22.82
2019-02-26T23:27:25.228Z,21.15
2019-02-26T23:29:56.450Z,20.23
2019-02-26T23:32:27.717Z,20.52
2019-02-26T23:35:14.724Z,21.30
2019-02-26T23:37:45.284Z,18.35
2019-02-26T23:40:16.120Z,20.88
2019-02-26T23:42:46.281Z,20.82
2019-02-26T23:45:17.192Z,18.90
2019-02-26T23:47:47.387Z,19.82
2019-02-26T23:50:18.044Z,18.50
2019-02-26T23:52:48.255Z,19.40
2019-02-26T23:55:18.498Z,19.57
2019-02-26T23:57:48.569Z,20.57
